MMMY/MTY METAR and TAF weather

Enter ICAO airport designator
Station Type Date Time Source
MMMY METAR 2020/07/06 07:40 UTC NOAA

MMMY 060740Z 13006KT 12SM SKC 26/23 A2983


Station Type Date Time Source
MMMY Decoded METAR 2020/07/06 07:40 UTC NOAA

Monterrey / Gen Maria, Mexico (MMMY) 25-47N 100-06W
Jul 06, 2020 - 03:40 AM EDT / 2020.07.06 0740 UTC
Wind: from the SE (130 degrees) at 7 MPH (6 KT):0
Visibility: 12 mile(s):0
Sky conditions: clear
Temperature: 78 F (26 C)
Dew Point: 73 F (23 C)
Relative Humidity: 83%
Pressure (altimeter): 29.83 in. Hg (1010 hPa)
ob: MMMY 060740Z 13006KT 12SM SKC 26/23 A2983
cycle: 7

Station Type Date Time Source
MMMY TAF 2020/07/06 06:34 UTC NOAA

TAF MMMY 060323Z 0606/0712 16005KT P6SM SKC TX37/0620Z TN23/0612Z
FM061600 13010KT P6SM SCT250
FM070200 13005KT P6SM SCT020

Example: see airport list